createdAt,value
2022-11-22T00:00:48.217Z,99608.56
2022-11-22T00:06:14.738Z,99616.69
2022-11-22T00:11:44.410Z,99613.03
2022-11-22T00:17:13.512Z,99607.94
2022-11-22T00:22:44.895Z,99624.44
2022-11-22T00:28:14.021Z,99621.56
2022-11-22T00:33:43.303Z,99617.91
2022-11-22T00:39:13.719Z,99602.84
2022-11-22T00:44:37.563Z,99610.44
2022-11-22T00:50:01.877Z,99606.66
2022-11-22T00:55:26.905Z,99604.00
2022-11-22T01:00:56.952Z,99599.06
2022-11-22T01:06:32.169Z,99612.91
2022-11-22T01:11:56.989Z,99624.63
2022-11-22T01:17:26.221Z,99631.88
2022-11-22T01:22:52.035Z,99613.66
2022-11-22T01:28:22.572Z,99626.19
2022-11-22T01:33:46.045Z,99630.56
2022-11-22T01:39:13.379Z,99628.09
2022-11-22T01:44:44.773Z,99637.06
2022-11-22T01:50:17.992Z,99635.84
2022-11-22T01:55:49.075Z,99618.69
2022-11-22T02:01:20.041Z,99612.09
2022-11-22T02:06:55.069Z,99611.78
2022-11-22T02:12:28.457Z,99628.09
2022-11-22T02:17:59.321Z,99636.84
2022-11-22T02:23:37.529Z,99630.06
2022-11-22T02:29:08.994Z,99620.50
2022-11-22T02:34:45.441Z,99617.72
2022-11-22T02:40:16.922Z,99605.19
2022-11-22T02:45:47.782Z,99617.97
2022-11-22T02:51:19.863Z,99620.19
2022-11-22T02:56:49.436Z,99610.66
2022-11-22T03:02:19.744Z,99617.13
2022-11-22T03:07:49.251Z,99616.47
2022-11-22T03:13:18.176Z,99619.09
2022-11-22T03:18:48.659Z,99632.00
2022-11-22T03:24:17.504Z,99626.91
2022-11-22T03:29:46.473Z,99637.81
2022-11-22T03:35:16.470Z,99640.28
2022-11-22T03:40:47.405Z,99639.13
2022-11-22T03:46:17.129Z,99639.94
2022-11-22T03:51:47.479Z,99649.84
2022-11-22T03:57:17.027Z,99671.97
2022-11-22T04:02:46.172Z,99687.59
2022-11-22T04:08:16.615Z,99694.06
2022-11-22T04:14:02.534Z,99686.50
2022-11-22T04:19:31.494Z,99709.47
2022-11-22T04:25:16.679Z,99731.88
2022-11-22T04:30:57.164Z,99731.38
2022-11-22T04:36:20.625Z,99737.41
2022-11-22T04:41:45.803Z,99749.28
2022-11-22T04:47:09.112Z,99755.13
2022-11-22T04:52:50.060Z,99747.94
2022-11-22T04:58:21.111Z,99751.47
2022-11-22T05:03:44.868Z,99750.03
2022-11-22T05:09:08.794Z,99756.31
2022-11-22T05:14:35.329Z,99779.63
2022-11-22T05:20:05.539Z,99781.00
2022-11-22T05:25:29.911Z,99790.56
2022-11-22T05:31:00.582Z,99772.94
2022-11-22T05:36:25.039Z,99768.81
2022-11-22T05:41:56.847Z,99774.78
2022-11-22T05:47:23.768Z,99792.41
2022-11-22T05:52:52.331Z,99806.31
2022-11-22T05:58:16.268Z,99826.00
2022-11-22T06:03:41.591Z,99830.84
2022-11-22T06:09:10.357Z,99819.88
2022-11-22T06:14:39.950Z,99823.53
2022-11-22T06:20:14.338Z,99833.69
2022-11-22T06:25:43.329Z,99830.09
2022-11-22T06:31:15.311Z,99845.53
2022-11-22T06:36:53.382Z,99856.97
2022-11-22T06:42:22.521Z,99874.53
2022-11-22T06:47:53.862Z,99858.91
2022-11-22T06:53:46.112Z,99870.56
2022-11-22T06:59:16.496Z,99876.72
2022-11-22T07:05:25.111Z,99855.53
2022-11-22T07:11:04.949Z,99871.44
2022-11-22T07:16:34.166Z,99871.59
2022-11-22T07:22:00.336Z,99869.53
2022-11-22T07:27:25.279Z,99864.00
2022-11-22T07:32:49.051Z,99854.22
2022-11-22T07:38:16.923Z,99873.78
2022-11-22T07:43:47.953Z,99862.56
2022-11-22T07:49:17.377Z,99877.81
2022-11-22T07:54:41.945Z,99864.78
2022-11-22T08:00:14.465Z,99852.56
2022-11-22T08:05:43.439Z,99852.13
2022-11-22T08:11:16.056Z,99849.53
2022-11-22T08:17:06.416Z,99862.47
2022-11-22T08:22:43.020Z,99887.03
2022-11-22T08:28:21.692Z,99889.78
2022-11-22T08:33:50.093Z,99883.78
2022-11-22T08:39:27.176Z,99875.44
2022-11-22T08:44:57.301Z,99876.44
2022-11-22T08:50:30.256Z,99870.19
2022-11-22T08:56:00.751Z,99869.16
2022-11-22T09:01:29.334Z,99866.59
2022-11-22T09:12:37.617Z,99852.75
2022-11-22T09:18:06.442Z,99860.53
2022-11-22T09:23:35.599Z,99863.94
2022-11-22T09:29:04.243Z,99866.66
2022-11-22T09:34:33.063Z,99865.59
2022-11-22T09:39:59.370Z,99860.22
2022-11-22T09:45:46.970Z,99852.97
2022-11-22T09:51:20.701Z,99848.53
2022-11-22T09:56:48.459Z,99830.16
2022-11-22T10:02:24.371Z,99838.59
2022-11-22T10:08:00.957Z,99840.66
2022-11-22T10:13:31.508Z,99846.44
2022-11-22T10:19:02.178Z,99835.97
2022-11-22T10:24:25.626Z,99856.25
2022-11-22T10:30:01.267Z,99855.25
2022-11-22T10:35:30.486Z,99857.47
2022-11-22T10:41:10.537Z,99858.16
2022-11-22T10:46:45.217Z,99867.56
2022-11-22T10:52:20.124Z,99869.69
2022-11-22T10:57:53.115Z,99859.41
2022-11-22T11:03:28.676Z,99869.75
2022-11-22T11:10:02.991Z,99882.59
2022-11-22T11:14:48.047Z,99886.66
2022-11-22T11:20:26.315Z,99872.78
2022-11-22T11:25:55.569Z,99864.41
2022-11-22T11:31:21.755Z,99862.31
2022-11-22T11:36:47.839Z,99873.56
2022-11-22T11:42:26.947Z,99877.63
2022-11-22T11:47:50.247Z,99870.41
2022-11-22T11:53:23.925Z,99865.97
2022-11-22T11:58:54.290Z,99856.25
2022-11-22T12:04:22.810Z,99847.56
2022-11-22T12:09:58.162Z,99851.47
2022-11-22T12:15:26.046Z,99869.81
2022-11-22T12:21:03.574Z,99870.72
2022-11-22T12:26:33.537Z,99877.09
2022-11-22T12:32:07.535Z,99868.72
2022-11-22T12:37:40.040Z,99882.47
2022-11-22T12:43:13.008Z,99882.91
2022-11-22T12:48:49.239Z,99883.63
2022-11-22T12:54:19.693Z,99890.78
2022-11-22T12:59:52.401Z,99895.91
2022-11-22T13:05:24.848Z,99900.78
2022-11-22T13:10:52.937Z,99894.31
2022-11-22T13:16:17.107Z,99885.50
2022-11-22T13:22:03.941Z,99881.59
2022-11-22T13:27:36.852Z,99899.84
2022-11-22T13:33:02.480Z,99902.09
2022-11-22T13:38:27.487Z,99892.78
2022-11-22T13:43:57.137Z,99907.22
2022-11-22T13:49:37.425Z,99892.78
2022-11-22T13:55:29.090Z,99921.47
2022-11-22T14:00:53.957Z,99912.41
2022-11-22T14:06:29.055Z,99924.91
2022-11-22T14:12:05.762Z,99919.63
2022-11-22T14:17:42.395Z,99917.50
2022-11-22T14:23:22.973Z,99919.06
2022-11-22T14:29:20.345Z,99925.09
2022-11-22T14:35:26.329Z,99937.84
2022-11-22T14:41:43.056Z,99946.81
2022-11-22T14:47:14.809Z,99961.72
2022-11-22T14:52:45.347Z,99978.84
2022-11-22T14:58:20.927Z,99968.44
2022-11-22T15:09:11.059Z,99965.69
2022-11-22T15:10:07.709Z,99970.84
2022-11-22T16:02:49.956Z,100024.41
2022-11-22T16:08:20.434Z,100018.25
2022-11-22T16:13:49.701Z,100022.69
2022-11-22T16:19:33.552Z,100018.19
2022-11-22T16:25:30.975Z,100033.91
2022-11-22T16:31:03.360Z,100044.47
2022-11-22T16:36:31.458Z,100070.47
2022-11-22T16:42:01.819Z,100076.69
2022-11-22T16:47:26.860Z,100069.84
2022-11-22T16:53:02.516Z,100062.53
2022-11-22T16:58:47.466Z,100063.19
2022-11-22T17:04:23.304Z,100045.88
2022-11-22T17:15:44.666Z,100029.22
2022-11-22T17:21:17.393Z,100035.47
2022-11-22T17:26:46.206Z,100055.34
2022-11-22T17:32:25.889Z,100058.91
2022-11-22T17:37:55.443Z,100069.09
2022-11-22T17:43:24.660Z,100079.81
2022-11-22T17:48:54.632Z,100070.81
2022-11-22T17:54:20.523Z,100073.47
2022-11-22T17:59:49.383Z,100065.16
2022-11-22T18:05:14.578Z,100059.47
2022-11-22T18:10:39.795Z,100061.63
2022-11-22T18:16:07.920Z,100070.50
2022-11-22T18:21:34.014Z,100081.22
2022-11-22T18:27:05.338Z,100086.94
2022-11-22T18:32:27.780Z,100099.31
2022-11-22T18:37:57.535Z,100100.78
2022-11-22T18:43:23.979Z,100104.31
2022-11-22T18:48:52.492Z,100105.66
2022-11-22T18:54:18.559Z,100106.31
2022-11-22T18:59:47.711Z,100114.69
2022-11-22T19:05:19.866Z,100126.06
2022-11-22T19:10:58.026Z,100121.53
2022-11-22T19:16:22.478Z,100125.06
2022-11-22T19:21:47.881Z,100138.25
2022-11-22T19:27:14.345Z,100135.78
2022-11-22T19:32:45.171Z,100134.75
2022-11-22T19:38:10.411Z,100146.78
2022-11-22T19:43:36.415Z,100138.75
2022-11-22T19:49:07.049Z,100146.47
2022-11-22T19:54:36.450Z,100157.81
2022-11-22T20:00:01.273Z,100168.53
2022-11-22T20:05:24.519Z,100172.38
2022-11-22T20:10:48.414Z,100176.19
2022-11-22T20:16:18.071Z,100170.19
2022-11-22T20:21:44.886Z,100167.53
2022-11-22T20:27:13.975Z,100173.38
2022-11-22T20:32:45.331Z,100181.41
2022-11-22T20:38:15.570Z,100196.25
2022-11-22T20:43:41.512Z,100207.63
2022-11-22T20:49:06.264Z,100207.31
2022-11-22T20:54:35.587Z,100213.00
2022-11-22T21:00:05.003Z,100214.31
2022-11-22T21:05:35.249Z,100220.34
2022-11-22T21:11:06.574Z,100228.38
2022-11-22T21:16:31.428Z,100235.09
2022-11-22T21:22:02.627Z,100241.56
2022-11-22T21:27:30.926Z,100237.41
2022-11-22T21:32:59.732Z,100247.09
2022-11-22T21:38:31.518Z,100241.41
2022-11-22T21:43:56.863Z,100247.91
2022-11-22T21:49:27.822Z,100248.41
2022-11-22T21:54:54.398Z,100271.84
2022-11-22T22:00:18.823Z,100277.50
2022-11-22T22:05:49.529Z,100285.53
2022-11-22T22:11:20.005Z,100281.66
2022-11-22T22:16:48.602Z,100286.50
2022-11-22T22:22:13.873Z,100271.44
2022-11-22T22:27:42.106Z,100274.97
2022-11-22T22:33:05.470Z,100284.84
2022-11-22T22:38:30.765Z,100298.53
2022-11-22T22:43:55.929Z,100295.19
2022-11-22T22:49:18.809Z,100296.88
2022-11-22T22:54:42.651Z,100299.84
2022-11-22T23:00:09.156Z,100312.72
2022-11-22T23:05:32.481Z,100315.91
2022-11-22T23:11:02.589Z,100298.88
2022-11-22T23:16:28.514Z,100303.88
2022-11-22T23:21:57.725Z,100315.91
2022-11-22T23:27:26.728Z,100328.22
2022-11-22T23:32:55.198Z,100342.63
2022-11-22T23:38:23.633Z,100336.97
2022-11-22T23:43:54.276Z,100334.19
2022-11-22T23:49:20.001Z,100326.66
2022-11-22T23:54:48.313Z,100333.97
